createdAt,value
2023-03-27T00:00:04.960Z,94647.00
2023-03-27T00:01:04.949Z,94645.00
2023-03-27T00:02:05.048Z,94647.00
2023-03-27T00:03:04.982Z,94645.00
2023-03-27T00:04:03.954Z,94636.00
2023-03-27T00:05:04.960Z,94634.00
2023-03-27T00:06:04.896Z,94630.00
2023-03-27T00:07:04.910Z,94632.00
2023-03-27T00:08:04.881Z,94634.00
2023-03-27T00:09:04.869Z,94634.00
2023-03-27T00:10:04.876Z,94638.00
2023-03-27T00:11:04.858Z,94636.00
2023-03-27T00:12:04.851Z,94638.00
2023-03-27T00:13:04.848Z,94636.00
2023-03-27T00:14:04.843Z,94634.00
2023-03-27T00:15:04.862Z,94632.00
2023-03-27T00:16:04.821Z,94626.00
2023-03-27T00:17:04.892Z,94626.00
2023-03-27T00:18:04.862Z,94620.00
2023-03-27T00:19:03.837Z,94616.00
2023-03-27T00:20:04.801Z,94616.00
2023-03-27T00:21:04.795Z,94614.00
2023-03-27T00:22:04.790Z,94612.00
2023-03-27T00:23:04.767Z,94616.00
2023-03-27T00:24:04.771Z,94618.00
2023-03-27T00:25:04.759Z,94618.00
2023-03-27T00:26:04.739Z,94616.00
2023-03-27T00:27:04.759Z,94618.00
2023-03-27T00:28:04.726Z,94614.00
2023-03-27T00:29:04.735Z,94614.00
2023-03-27T00:30:04.711Z,94614.00
2023-03-27T00:31:04.823Z,94612.00
2023-03-27T00:32:04.791Z,94610.00
2023-03-27T00:33:04.898Z,94612.00
2023-03-27T00:34:04.923Z,94612.00
2023-03-27T00:35:04.961Z,94612.00
2023-03-27T00:36:05.078Z,94618.00
2023-03-27T00:37:05.109Z,94618.00
2023-03-27T00:38:05.138Z,94618.00
2023-03-27T00:39:04.187Z,94616.00
2023-03-27T00:40:04.245Z,94614.00
2023-03-27T00:41:05.371Z,94614.00
2023-03-27T00:42:04.358Z,94616.00
2023-03-27T00:43:04.435Z,94616.00
2023-03-27T00:44:05.488Z,94618.00
2023-03-27T00:45:05.562Z,94616.00
2023-03-27T00:46:04.670Z,94612.00
2023-03-27T00:47:04.697Z,94612.00
2023-03-27T00:48:05.748Z,94616.00
2023-03-27T00:49:05.798Z,94616.00
2023-03-27T00:50:05.840Z,94614.00
2023-03-27T00:51:05.988Z,94612.00
2023-03-27T00:52:05.984Z,94612.00
2023-03-27T00:53:06.037Z,94614.00
2023-03-27T00:54:05.101Z,94614.00
2023-03-27T00:55:06.158Z,94610.00
2023-03-27T00:56:06.249Z,94614.00
2023-03-27T00:57:06.328Z,94616.00
2023-03-27T00:58:06.361Z,94620.00
2023-03-27T00:59:05.397Z,94622.00
2023-03-27T01:00:07.625Z,94628.00
2023-03-27T01:01:06.514Z,94626.00
2023-03-27T01:02:05.460Z,94624.00
2023-03-27T01:03:06.576Z,94624.00
2023-03-27T01:04:06.453Z,94628.00
2023-03-27T01:05:06.420Z,94626.00
2023-03-27T01:06:05.466Z,94626.00
2023-03-27T01:07:06.424Z,94626.00
2023-03-27T01:08:06.439Z,94630.00
2023-03-27T01:09:05.412Z,94632.00
2023-03-27T01:10:06.403Z,94632.00
2023-03-27T01:11:06.389Z,94634.00
2023-03-27T01:12:06.372Z,94634.00
2023-03-27T01:13:06.369Z,94634.00
2023-03-27T01:14:06.375Z,94638.00
2023-03-27T01:15:06.366Z,94638.00
2023-03-27T01:16:06.393Z,94636.00
2023-03-27T01:17:06.362Z,94636.00
2023-03-27T01:18:06.381Z,94634.00
2023-03-27T01:19:06.357Z,94645.00
2023-03-27T01:20:06.327Z,94645.00
2023-03-27T01:21:06.339Z,94647.00
2023-03-27T01:22:05.308Z,94645.00
2023-03-27T01:23:06.316Z,94647.00
2023-03-27T01:24:05.309Z,94649.00
2023-03-27T01:25:06.288Z,94651.00
2023-03-27T01:26:06.310Z,94653.00
2023-03-27T01:27:06.361Z,94653.00
2023-03-27T01:28:06.402Z,94653.00
2023-03-27T01:29:06.453Z,94657.00
2023-03-27T01:30:06.508Z,94659.00
2023-03-27T01:31:06.642Z,94655.00
2023-03-27T01:32:05.616Z,94653.00
2023-03-27T01:33:05.693Z,94649.00
2023-03-27T01:34:06.719Z,94647.00
2023-03-27T01:35:05.825Z,94647.00
2023-03-27T01:36:06.825Z,94649.00
2023-03-27T01:37:06.890Z,94649.00
2023-03-27T01:38:06.937Z,94651.00
2023-03-27T01:39:06.988Z,94651.00
2023-03-27T01:40:07.048Z,94649.00
2023-03-27T01:41:07.072Z,94649.00
2023-03-27T01:42:07.130Z,94649.00
2023-03-27T01:43:06.192Z,94649.00
2023-03-27T01:44:07.250Z,94647.00
2023-03-27T01:45:06.288Z,94645.00
2023-03-27T01:46:07.354Z,94638.00
2023-03-27T01:47:06.389Z,94638.00
2023-03-27T01:48:07.525Z,94636.00
2023-03-27T01:49:07.498Z,94647.00
2023-03-27T01:50:07.551Z,94645.00
2023-03-27T01:51:07.613Z,94649.00
2023-03-27T01:52:07.672Z,94645.00
2023-03-27T01:53:07.711Z,94645.00
2023-03-27T01:54:06.781Z,94645.00
2023-03-27T01:55:06.839Z,94638.00
2023-03-27T01:56:07.904Z,94638.00
2023-03-27T01:57:07.973Z,94645.00
2023-03-27T01:58:06.989Z,94638.00
2023-03-27T01:59:07.065Z,94638.00
2023-03-27T02:00:18.013Z,94647.00
2023-03-27T02:01:08.272Z,94645.00
2023-03-27T02:02:08.104Z,94649.00
2023-03-27T02:03:08.091Z,94647.00
2023-03-27T02:04:08.100Z,94645.00
2023-03-27T02:05:07.093Z,94647.00
2023-03-27T02:06:07.072Z,94647.00
2023-03-27T02:07:08.082Z,94636.00
2023-03-27T02:08:08.050Z,94645.00
2023-03-27T02:09:08.072Z,94636.00
2023-03-27T02:10:08.049Z,94638.00
2023-03-27T02:11:08.039Z,94634.00
2023-03-27T02:12:07.020Z,94630.00
2023-03-27T02:13:08.036Z,94632.00
2023-03-27T02:14:07.008Z,94628.00
2023-03-27T02:15:23.558Z,94624.00
2023-03-27T02:16:08.027Z,94622.00
2023-03-27T02:17:08.013Z,94620.00
2023-03-27T02:18:07.995Z,94618.00
2023-03-27T02:19:07.986Z,94614.00
2023-03-27T02:20:07.978Z,94610.00
2023-03-27T02:21:07.967Z,94612.00
2023-03-27T02:22:07.983Z,94608.00
2023-03-27T02:23:07.990Z,94606.00
2023-03-27T02:24:07.961Z,94604.00
2023-03-27T02:25:07.936Z,94604.00
2023-03-27T02:26:07.975Z,94604.00
2023-03-27T02:27:07.929Z,94602.00
2023-03-27T02:28:06.908Z,94604.00
2023-03-27T02:29:07.908Z,94600.00
2023-03-27T02:30:07.895Z,94602.00
2023-03-27T02:31:33.251Z,94602.00
2023-03-27T02:32:08.013Z,94602.00
2023-03-27T02:33:07.882Z,94602.00
2023-03-27T02:34:07.871Z,94604.00
2023-03-27T02:35:07.879Z,94604.00
2023-03-27T02:36:10.627Z,94604.00
2023-03-27T02:37:06.863Z,94606.00
2023-03-27T02:38:06.840Z,94606.00
2023-03-27T02:39:07.881Z,94606.00
2023-03-27T02:40:07.835Z,94606.00
2023-03-27T02:41:07.828Z,94606.00
2023-03-27T02:42:07.826Z,94608.00
2023-03-27T02:43:06.818Z,94612.00
2023-03-27T02:44:07.810Z,94608.00
2023-03-27T02:45:07.786Z,94614.00
2023-03-27T02:46:07.820Z,94612.00
2023-03-27T02:47:07.779Z,94614.00
2023-03-27T02:48:07.836Z,94614.00
2023-03-27T02:49:07.783Z,94614.00
2023-03-27T02:50:07.754Z,94614.00
2023-03-27T02:51:06.761Z,94614.00
2023-03-27T02:52:06.745Z,94614.00
2023-03-27T02:53:06.727Z,94610.00
2023-03-27T02:54:07.754Z,94612.00
2023-03-27T02:55:07.750Z,94612.00
2023-03-27T02:56:07.705Z,94616.00
2023-03-27T02:57:07.780Z,94620.00
2023-03-27T02:58:07.697Z,94620.00
2023-03-27T02:59:06.700Z,94618.00
2023-03-27T03:00:07.766Z,94618.00
2023-03-27T03:01:07.762Z,94618.00
2023-03-27T03:02:07.738Z,94618.00
2023-03-27T03:03:07.946Z,94616.00
2023-03-27T03:04:07.705Z,94618.00
2023-03-27T03:05:07.812Z,94622.00
2023-03-27T03:06:06.795Z,94624.00
2023-03-27T03:07:07.835Z,94624.00
2023-03-27T03:08:07.884Z,94628.00
2023-03-27T03:09:07.915Z,94628.00
2023-03-27T03:10:09.676Z,94630.00
2023-03-27T03:11:08.006Z,94630.00
2023-03-27T03:12:07.952Z,94628.00
2023-03-27T03:13:07.945Z,94628.00
2023-03-27T03:14:07.931Z,94632.00
2023-03-27T03:15:07.923Z,94630.00
2023-03-27T03:16:07.907Z,94630.00
2023-03-27T03:17:07.910Z,94634.00
2023-03-27T03:18:07.927Z,94636.00
2023-03-27T03:19:06.888Z,94636.00
2023-03-27T03:20:07.872Z,94645.00
2023-03-27T03:21:07.863Z,94645.00
2023-03-27T03:22:06.857Z,94649.00
2023-03-27T03:23:07.943Z,94649.00
2023-03-27T03:24:07.857Z,94647.00
2023-03-27T03:25:07.860Z,94649.00
2023-03-27T03:26:07.825Z,94651.00
2023-03-27T03:27:07.845Z,94651.00
2023-03-27T03:28:07.812Z,94651.00
2023-03-27T03:29:07.814Z,94653.00
2023-03-27T03:30:07.789Z,94651.00
2023-03-27T03:31:07.836Z,94653.00
2023-03-27T03:32:07.802Z,94651.00
2023-03-27T03:33:07.793Z,94651.00
2023-03-27T03:34:06.789Z,94653.00
2023-03-27T03:35:07.766Z,94655.00
2023-03-27T03:36:06.774Z,94655.00
2023-03-27T03:37:07.740Z,94657.00
2023-03-27T03:38:07.742Z,94661.00
2023-03-27T03:39:07.734Z,94659.00
2023-03-27T03:40:07.735Z,94663.00
2023-03-27T03:41:07.764Z,94665.00
2023-03-27T03:42:06.807Z,94665.00
2023-03-27T03:43:07.872Z,94665.00
2023-03-27T03:44:07.875Z,94667.00
2023-03-27T03:45:07.941Z,94669.00
2023-03-27T03:46:07.002Z,94671.00
2023-03-27T03:47:08.013Z,94673.00
2023-03-27T03:48:08.071Z,94675.00
2023-03-27T03:49:08.092Z,94675.00
2023-03-27T03:50:08.149Z,94677.00
2023-03-27T03:51:08.168Z,94681.00
2023-03-27T03:52:08.222Z,94677.00
2023-03-27T03:53:07.247Z,94679.00
2023-03-27T03:54:08.289Z,94681.00
2023-03-27T03:55:08.342Z,94681.00
2023-03-27T03:56:08.367Z,94685.00
2023-03-27T03:57:08.439Z,94683.00
2023-03-27T03:58:08.580Z,94685.00
2023-03-27T03:59:08.508Z,94685.00
2023-03-27T04:00:07.529Z,94689.00
2023-03-27T04:01:08.574Z,94687.00
2023-03-27T04:02:08.645Z,94692.00
2023-03-27T04:03:08.829Z,94692.00
2023-03-27T04:04:08.681Z,94692.00
2023-03-27T04:05:09.596Z,94692.00
2023-03-27T04:06:08.704Z,94694.00
2023-03-27T04:07:08.693Z,94694.00
2023-03-27T04:08:08.684Z,94692.00
2023-03-27T04:09:08.682Z,94691.00
2023-03-27T04:10:08.701Z,94692.00
2023-03-27T04:11:08.674Z,94694.00
2023-03-27T04:12:08.671Z,94696.00
2023-03-27T04:13:08.639Z,94698.00
2023-03-27T04:14:08.636Z,94698.00
2023-03-27T04:15:08.654Z,94698.00
2023-03-27T04:16:08.653Z,94700.00
2023-03-27T04:17:07.612Z,94700.00
2023-03-27T04:18:08.768Z,94700.00
2023-03-27T04:19:08.615Z,94700.00
2023-03-27T04:20:07.613Z,94702.00
2023-03-27T04:21:08.595Z,94702.00
2023-03-27T04:22:08.588Z,94700.00
2023-03-27T04:23:08.580Z,94704.00
2023-03-27T04:24:08.613Z,94702.00
2023-03-27T04:25:07.570Z,94700.00
2023-03-27T04:26:08.585Z,94702.00
2023-03-27T04:27:08.551Z,94702.00
2023-03-27T04:28:08.626Z,94706.00
2023-03-27T04:29:07.556Z,94704.00
2023-03-27T04:30:08.551Z,94706.00
2023-03-27T04:31:08.605Z,94708.00
2023-03-27T04:32:08.525Z,94708.00
2023-03-27T04:33:08.523Z,94708.00
2023-03-27T04:34:08.518Z,94708.00
2023-03-27T04:35:08.494Z,94710.00
2023-03-27T04:36:08.764Z,94708.00
2023-03-27T04:37:08.492Z,94708.00
2023-03-27T04:38:08.470Z,94710.00
2023-03-27T04:39:07.472Z,94714.00
2023-03-27T04:40:08.459Z,94714.00
2023-03-27T04:41:08.467Z,94716.00
2023-03-27T04:42:07.452Z,94720.00
2023-03-27T04:43:08.434Z,94720.00
2023-03-27T04:44:08.437Z,94722.00
2023-03-27T04:45:08.432Z,94722.00
2023-03-27T04:46:08.424Z,94726.00
2023-03-27T04:47:08.874Z,94730.00
2023-03-27T04:48:07.512Z,94730.00
2023-03-27T04:49:08.445Z,94732.00
2023-03-27T04:50:08.499Z,94732.00
2023-03-27T04:51:08.513Z,94738.00
2023-03-27T04:52:07.542Z,94739.00
2023-03-27T04:53:08.570Z,94743.00
2023-03-27T04:54:08.605Z,94745.00
2023-03-27T04:55:08.636Z,94747.00
2023-03-27T04:56:08.629Z,94747.00
2023-03-27T04:57:07.732Z,94745.00
2023-03-27T04:58:07.667Z,94745.00
2023-03-27T04:59:08.703Z,94747.00
2023-03-27T05:00:08.855Z,94749.00
2023-03-27T05:01:08.773Z,94757.00
2023-03-27T05:02:08.756Z,94755.00
2023-03-27T05:03:07.974Z,94755.00
2023-03-27T05:04:08.817Z,94755.00
2023-03-27T05:05:07.865Z,94755.00
2023-03-27T05:06:08.860Z,94755.00
2023-03-27T05:12:08.037Z,94769.00
2023-03-27T05:13:08.081Z,94771.00
2023-03-27T05:14:09.087Z,94771.00
2023-03-27T05:15:09.125Z,94773.00
2023-03-27T05:16:08.192Z,94775.00
2023-03-27T05:17:09.181Z,94777.00
2023-03-27T05:18:09.481Z,94779.00
2023-03-27T05:20:08.262Z,94783.00
2023-03-27T05:21:09.286Z,94785.00
2023-03-27T05:23:08.330Z,94785.00
2023-03-27T05:24:08.349Z,94790.00
2023-03-27T05:25:09.383Z,94785.00
2023-03-27T05:26:09.426Z,94790.00
2023-03-27T05:27:09.478Z,94790.00
2023-03-27T05:28:08.467Z,94792.00
2023-03-27T05:29:09.496Z,94796.00
2023-03-27T05:30:09.525Z,94796.00
2023-03-27T05:31:09.607Z,94796.00
2023-03-27T05:32:09.602Z,94806.00
2023-03-27T05:36:08.845Z,94810.00
2023-03-27T05:37:08.714Z,94808.00
2023-03-27T05:38:09.770Z,94818.00
2023-03-27T05:39:09.749Z,94814.00
2023-03-27T05:40:09.768Z,94822.00
2023-03-27T05:41:09.790Z,94824.00
2023-03-27T05:42:09.810Z,94822.00
2023-03-27T05:43:09.843Z,94824.00
2023-03-27T05:44:09.855Z,94826.00
2023-03-27T05:45:09.847Z,94832.00
2023-03-27T05:46:09.907Z,94826.00
2023-03-27T05:47:09.884Z,94832.00
2023-03-27T05:48:09.915Z,94837.00
2023-03-27T05:49:09.909Z,94845.00
2023-03-27T05:50:09.968Z,94845.00
2023-03-27T05:51:09.980Z,94839.00
2023-03-27T05:52:09.961Z,94841.00
2023-03-27T05:53:08.932Z,94847.00
2023-03-27T05:54:09.943Z,94847.00
2023-03-27T05:56:08.923Z,94857.00
2023-03-27T05:57:09.922Z,94861.00
2023-03-27T05:58:10.157Z,94861.00
2023-03-27T05:59:09.903Z,94865.00
2023-03-27T06:00:09.919Z,94869.00
2023-03-27T06:01:10.345Z,94869.00
2023-03-27T06:02:10.015Z,94869.00
2023-03-27T06:03:10.153Z,94871.00
2023-03-27T06:04:10.095Z,94875.00
2023-03-27T06:05:09.117Z,94875.00
2023-03-27T06:06:10.177Z,94875.00
2023-03-27T06:09:09.355Z,94902.00
2023-03-27T06:10:13.486Z,94902.00
2023-03-27T06:12:09.370Z,94906.00
2023-03-27T06:13:10.383Z,94910.00
2023-03-27T06:16:09.374Z,94914.00
2023-03-27T06:17:12.553Z,94918.00
2023-03-27T06:18:10.393Z,94922.00
2023-03-27T06:19:09.330Z,94924.00
2023-03-27T06:20:09.352Z,94930.00
2023-03-27T06:21:13.023Z,94978.00
2023-03-27T06:23:09.429Z,94935.00
2023-03-27T06:23:31.594Z,94982.00
2023-03-27T06:24:10.286Z,94941.00
2023-03-27T06:26:09.293Z,94951.00
2023-03-27T06:28:09.589Z,94959.00
2023-03-27T06:29:10.263Z,94961.00
2023-03-27T06:30:16.228Z,95011.00
2023-03-27T06:33:09.255Z,94979.00
2023-03-27T06:37:00.924Z,95035.00
2023-03-27T06:37:09.200Z,94998.00
2023-03-27T06:38:10.192Z,94998.00
2023-03-27T06:39:10.222Z,94998.00
2023-03-27T06:40:10.197Z,95006.00
2023-03-27T06:41:10.187Z,95008.00
2023-03-27T06:45:09.146Z,95016.00
2023-03-27T06:46:09.194Z,95018.00
2023-03-27T06:47:10.160Z,95020.00
2023-03-27T06:48:13.791Z,95024.00
2023-03-27T06:51:44.126Z,95084.00
2023-03-27T06:52:09.106Z,95045.00
2023-03-27T06:52:43.136Z,95084.00
2023-03-27T06:53:19.662Z,95047.00
2023-03-27T06:53:43.598Z,95085.00
2023-03-27T06:54:10.081Z,95049.00
2023-03-27T06:55:15.024Z,95057.00
2023-03-27T06:56:10.382Z,95059.00
2023-03-27T06:57:09.139Z,95065.00
2023-03-27T06:58:10.047Z,95067.00
2023-03-27T06:59:10.058Z,95071.00
2023-03-27T07:00:02.573Z,95113.00
2023-03-27T07:01:09.076Z,95073.00
2023-03-27T07:02:09.077Z,95076.00
2023-03-27T07:03:10.081Z,95080.00
2023-03-27T07:04:09.012Z,95088.00
2023-03-27T07:04:42.895Z,95137.00
2023-03-27T07:05:10.025Z,95096.00
2023-03-27T07:07:08.995Z,95112.00
2023-03-27T07:08:21.845Z,95110.00
2023-03-27T07:08:23.469Z,95152.00
2023-03-27T07:09:09.995Z,95110.00
2023-03-27T07:11:12.158Z,95112.00
2023-03-27T07:12:08.956Z,95114.00
2023-03-27T07:12:58.962Z,95164.00
2023-03-27T07:13:09.937Z,95118.00
2023-03-27T07:14:00.119Z,95164.00
2023-03-27T07:14:09.944Z,95123.00
2023-03-27T07:15:09.952Z,95121.00
2023-03-27T07:16:09.972Z,95129.00
2023-03-27T07:17:09.924Z,95143.00
2023-03-27T07:17:18.540Z,95184.00
2023-03-27T07:19:08.906Z,95163.00
2023-03-27T07:19:18.423Z,95199.00
2023-03-27T07:20:08.997Z,95169.00
2023-03-27T07:20:19.371Z,95205.00
2023-03-27T07:21:09.892Z,95169.00
2023-03-27T07:22:18.323Z,95205.00
2023-03-27T07:24:19.377Z,95203.00
2023-03-27T07:25:08.865Z,95171.00
2023-03-27T07:26:08.842Z,95176.00
2023-03-27T07:27:09.835Z,95180.00
2023-03-27T07:28:37.566Z,95223.00
2023-03-27T07:29:38.872Z,95229.00
2023-03-27T07:30:38.908Z,95233.00
2023-03-27T07:32:09.633Z,95196.00
2023-03-27T07:32:56.986Z,95240.00
2023-03-27T07:33:09.934Z,95202.00
2023-03-27T07:34:09.964Z,95202.00
2023-03-27T07:35:08.797Z,95208.00
2023-03-27T07:36:09.828Z,95212.00
2023-03-27T07:37:09.761Z,95216.00
2023-03-27T07:38:09.793Z,95218.00
2023-03-27T07:38:25.447Z,95258.00
2023-03-27T07:39:26.313Z,95266.00
2023-03-27T07:42:08.738Z,95227.00
2023-03-27T07:42:25.470Z,95268.00
2023-03-27T07:43:09.765Z,95231.00
2023-03-27T07:46:08.851Z,95241.00
2023-03-27T07:47:08.909Z,95247.00
2023-03-27T07:48:09.730Z,95245.00
2023-03-27T07:49:09.812Z,95249.00
2023-03-27T07:50:09.839Z,95253.00
2023-03-27T07:51:13.879Z,95257.00
2023-03-27T07:52:49.834Z,95309.00
2023-03-27T07:53:08.854Z,95272.00
2023-03-27T07:54:09.906Z,95276.00
2023-03-27T07:55:09.954Z,95280.00
2023-03-27T07:56:07.341Z,95327.00
2023-03-27T07:56:10.063Z,95282.00
2023-03-27T07:57:10.231Z,95286.00
2023-03-27T07:58:07.651Z,95331.00
2023-03-27T07:58:10.179Z,95290.00
2023-03-27T07:59:10.189Z,95294.00
2023-03-27T07:59:11.876Z,95333.00
2023-03-27T08:00:10.246Z,95296.00
2023-03-27T08:01:10.384Z,95298.00
2023-03-27T08:01:26.563Z,95337.00
2023-03-27T08:02:10.397Z,95302.00
2023-03-27T08:02:27.705Z,95339.00
2023-03-27T08:03:27.640Z,95344.00
2023-03-27T08:05:26.486Z,95352.00
2023-03-27T08:06:09.540Z,95319.00
2023-03-27T08:06:27.748Z,95352.00
2023-03-27T08:07:10.621Z,95319.00
2023-03-27T08:08:47.893Z,95362.00
2023-03-27T08:09:09.689Z,95327.00
2023-03-27T08:09:48.404Z,95366.00
2023-03-27T08:10:10.789Z,95329.00
2023-03-27T08:11:23.021Z,95333.00
2023-03-27T08:15:08.435Z,95384.00
2023-03-27T08:16:07.223Z,95388.00
2023-03-27T08:16:09.823Z,95347.00
2023-03-27T08:17:16.337Z,95351.00
2023-03-27T08:18:06.303Z,95391.00
2023-03-27T08:18:10.790Z,95353.00
2023-03-27T08:19:07.344Z,95391.00
2023-03-27T08:20:07.325Z,95395.00
2023-03-27T08:21:07.358Z,95409.00
2023-03-27T08:21:09.754Z,95362.00
2023-03-27T08:22:07.377Z,95411.00
2023-03-27T08:22:10.772Z,95362.00
2023-03-27T08:23:07.401Z,95409.00
2023-03-27T08:24:07.557Z,95413.00
2023-03-27T08:24:09.712Z,95370.00
2023-03-27T08:25:10.718Z,95376.00
2023-03-27T08:28:09.697Z,95388.00
2023-03-27T08:29:10.676Z,95390.00
2023-03-27T08:30:25.989Z,95437.00
2023-03-27T08:32:09.656Z,95394.00
2023-03-27T08:33:10.663Z,95390.00
2023-03-27T08:35:05.475Z,95433.00
2023-03-27T08:36:08.748Z,95435.00
2023-03-27T08:37:07.048Z,95442.00
2023-03-27T08:37:09.617Z,95400.00
2023-03-27T08:38:20.022Z,95446.00
2023-03-27T08:38:23.750Z,95404.00
2023-03-27T08:39:07.529Z,95448.00
2023-03-27T08:39:10.609Z,95415.00
2023-03-27T08:40:10.585Z,95415.00
2023-03-27T08:41:10.587Z,95415.00
2023-03-27T08:42:10.947Z,95417.00
2023-03-27T08:44:09.568Z,95421.00
2023-03-27T08:45:10.569Z,95421.00
2023-03-27T08:45:13.732Z,95460.00
2023-03-27T08:46:10.607Z,95423.00
2023-03-27T08:47:10.596Z,95421.00
2023-03-27T08:52:09.525Z,95437.00
2023-03-27T08:53:10.500Z,95441.00
2023-03-27T08:54:10.514Z,95445.00
2023-03-27T08:55:10.581Z,95445.00
2023-03-27T08:55:12.363Z,95484.00
2023-03-27T08:56:10.588Z,95441.00
2023-03-27T08:56:13.146Z,95486.00
2023-03-27T08:57:10.971Z,95449.00
2023-03-27T08:58:09.522Z,95449.00
2023-03-27T08:58:14.877Z,95493.00
2023-03-27T08:59:10.466Z,95455.00
2023-03-27T09:00:12.452Z,95499.00
2023-03-27T09:01:09.507Z,95459.00
2023-03-27T09:02:10.775Z,95464.00
2023-03-27T09:03:10.602Z,95464.00
2023-03-27T09:03:12.233Z,95503.00
2023-03-27T09:04:13.072Z,95505.00
2023-03-27T09:05:13.082Z,95509.00
2023-03-27T09:09:09.384Z,95478.00
2023-03-27T09:10:10.404Z,95482.00
2023-03-27T09:13:09.428Z,95482.00
2023-03-27T09:13:50.679Z,95523.00
2023-03-27T09:14:51.624Z,95523.00
2023-03-27T09:16:09.487Z,95492.00
2023-03-27T09:17:10.420Z,95494.00
2023-03-27T09:19:50.563Z,95535.00
2023-03-27T09:20:09.517Z,95500.00
2023-03-27T09:20:51.536Z,95536.00
2023-03-27T09:21:10.544Z,95502.00
2023-03-27T09:22:10.611Z,95504.00
2023-03-27T09:26:09.828Z,95515.00
2023-03-27T09:27:10.857Z,95515.00
2023-03-27T09:27:12.001Z,95552.00
2023-03-27T09:28:10.950Z,95517.00
2023-03-27T09:29:09.996Z,95519.00
2023-03-27T09:29:29.693Z,95552.00
2023-03-27T09:30:11.029Z,95519.00
2023-03-27T09:30:30.711Z,95556.00
2023-03-27T09:31:11.140Z,95519.00
2023-03-27T09:31:31.478Z,95560.00
2023-03-27T09:33:10.221Z,95525.00
2023-03-27T09:34:11.277Z,95529.00
2023-03-27T09:35:11.314Z,95533.00
2023-03-27T09:36:11.401Z,95533.00
2023-03-27T09:37:11.409Z,95533.00
2023-03-27T09:38:11.476Z,95533.00
2023-03-27T09:39:11.529Z,95533.00
2023-03-27T09:40:11.659Z,95539.00
2023-03-27T09:44:10.792Z,95547.00
2023-03-27T09:45:11.873Z,95547.00
2023-03-27T09:46:11.941Z,95549.00
2023-03-27T09:48:11.054Z,95547.00
2023-03-27T09:48:42.322Z,95587.00
2023-03-27T09:49:12.136Z,95547.00
2023-03-27T09:49:43.774Z,95578.00
2023-03-27T09:51:41.352Z,95582.00
2023-03-27T09:52:44.659Z,95586.00
2023-03-27T09:53:11.235Z,95543.00
2023-03-27T09:53:42.277Z,95587.00
2023-03-27T09:54:12.295Z,95543.00
2023-03-27T09:54:42.215Z,95591.00
2023-03-27T09:55:12.304Z,95543.00
2023-03-27T10:00:11.381Z,95549.00
2023-03-27T10:01:12.431Z,95553.00
2023-03-27T10:02:39.486Z,95601.00
2023-03-27T10:03:40.151Z,95597.00
2023-03-27T10:04:40.337Z,95595.00
2023-03-27T10:05:11.663Z,95555.00
2023-03-27T10:05:40.331Z,95599.00
2023-03-27T10:06:12.712Z,95558.00
2023-03-27T10:06:41.071Z,95605.00
2023-03-27T10:08:11.804Z,95564.00
2023-03-27T10:08:39.727Z,95617.00
2023-03-27T10:09:12.874Z,95566.00
2023-03-27T10:09:39.477Z,95613.00
2023-03-27T10:10:12.878Z,95572.00
2023-03-27T10:10:40.343Z,95615.00
2023-03-27T10:11:12.923Z,95572.00
2023-03-27T10:11:40.366Z,95615.00
2023-03-27T10:12:12.961Z,95572.00
2023-03-27T10:12:42.289Z,95617.00
2023-03-27T10:13:12.979Z,95574.00
2023-03-27T10:14:13.042Z,95576.00
2023-03-27T10:14:58.834Z,95625.00
2023-03-27T10:15:13.101Z,95578.00
2023-03-27T10:16:13.120Z,95588.00
2023-03-27T10:17:12.144Z,95592.00
2023-03-27T10:17:18.475Z,95635.00
2023-03-27T10:18:13.184Z,95594.00
2023-03-27T10:19:13.193Z,95592.00
2023-03-27T10:23:12.318Z,95596.00
2023-03-27T10:24:13.355Z,95600.00
2023-03-27T10:25:13.408Z,95603.00
2023-03-27T10:26:13.410Z,95607.00
2023-03-27T10:27:13.450Z,95611.00
2023-03-27T10:28:12.481Z,95615.00
2023-03-27T10:29:13.495Z,95615.00
2023-03-27T10:30:13.592Z,95617.00
2023-03-27T10:31:13.596Z,95617.00
2023-03-27T10:32:13.631Z,95617.00
2023-03-27T10:33:13.664Z,95619.00
2023-03-27T10:34:12.709Z,95615.00
2023-03-27T10:35:13.665Z,95619.00
2023-03-27T10:36:13.723Z,95617.00
2023-03-27T10:37:12.740Z,95617.00
2023-03-27T10:38:12.778Z,95617.00
2023-03-27T10:39:13.857Z,95615.00
2023-03-27T10:41:12.859Z,95617.00
2023-03-27T10:42:13.904Z,95615.00
2023-03-27T10:43:13.921Z,95619.00
2023-03-27T10:44:13.932Z,95619.00
2023-03-27T10:45:13.966Z,95619.00
2023-03-27T10:46:14.029Z,95623.00
2023-03-27T10:47:14.058Z,95623.00
2023-03-27T10:48:14.474Z,95625.00
2023-03-27T10:50:13.206Z,95629.00
2023-03-27T10:51:14.146Z,95631.00
2023-03-27T10:52:14.170Z,95631.00
2023-03-27T10:53:13.276Z,95635.00
2023-03-27T10:54:14.266Z,95635.00
2023-03-27T10:55:14.272Z,95639.00
2023-03-27T10:56:14.284Z,95647.00
2023-03-27T10:57:14.378Z,95643.00
2023-03-27T10:58:13.353Z,95635.00
2023-03-27T10:59:14.379Z,95637.00
2023-03-27T11:00:13.507Z,95637.00
2023-03-27T11:01:13.465Z,95635.00
2023-03-27T11:04:13.615Z,95645.00
2023-03-27T11:06:13.624Z,95647.00
2023-03-27T11:07:16.369Z,95645.00
2023-03-27T11:08:14.663Z,95649.00
2023-03-27T11:09:14.646Z,95652.00
2023-03-27T11:11:13.632Z,95652.00
2023-03-27T11:15:13.600Z,95652.00
2023-03-27T11:16:14.640Z,95658.00
2023-03-27T11:17:13.575Z,95660.00
2023-03-27T11:18:14.595Z,95660.00
2023-03-27T11:18:15.155Z,95707.00
2023-03-27T11:19:16.133Z,95709.00
2023-03-27T11:21:13.548Z,95672.00
2023-03-27T11:23:13.534Z,95676.00
2023-03-27T11:24:14.535Z,95676.00
2023-03-27T11:26:13.498Z,95678.00
2023-03-27T11:27:14.774Z,95680.00
2023-03-27T11:29:13.493Z,95680.00
2023-03-27T11:30:14.481Z,95680.00
2023-03-27T11:31:14.540Z,95680.00
2023-03-27T11:32:14.449Z,95684.00
2023-03-27T11:33:14.470Z,95682.00
2023-03-27T11:36:13.475Z,95694.00
2023-03-27T11:37:14.417Z,95692.00
2023-03-27T11:38:14.486Z,95692.00
2023-03-27T11:39:14.408Z,95692.00
2023-03-27T11:40:14.415Z,95692.00
2023-03-27T11:43:13.384Z,95698.00
2023-03-27T11:44:14.365Z,95694.00
2023-03-27T11:45:14.430Z,95694.00
2023-03-27T11:46:14.494Z,95696.00
2023-03-27T11:47:14.487Z,95698.00
2023-03-27T11:48:14.586Z,95702.00
2023-03-27T11:49:13.538Z,95702.00
2023-03-27T11:50:14.589Z,95705.00
2023-03-27T11:51:14.640Z,95709.00
2023-03-27T11:52:14.647Z,95711.00
2023-03-27T11:53:14.701Z,95713.00
2023-03-27T11:54:14.737Z,95711.00
2023-03-27T11:55:14.784Z,95713.00
2023-03-27T11:56:14.824Z,95713.00
2023-03-27T11:57:14.913Z,95713.00
2023-03-27T11:58:14.919Z,95717.00
2023-03-27T11:59:14.952Z,95713.00
2023-03-27T12:00:14.974Z,95715.00
2023-03-27T12:01:17.298Z,95713.00
2023-03-27T12:03:14.085Z,95713.00
2023-03-27T12:04:14.142Z,95717.00
2023-03-27T12:05:14.978Z,95715.00
2023-03-27T12:06:15.003Z,95717.00
2023-03-27T12:07:18.802Z,95721.00
2023-03-27T12:08:15.843Z,95721.00
2023-03-27T12:11:13.931Z,95725.00
2023-03-27T12:12:14.928Z,95723.00
2023-03-27T12:13:14.941Z,95721.00
2023-03-27T12:16:13.957Z,95717.00
2023-03-27T12:17:14.897Z,95719.00
2023-03-27T12:20:14.012Z,95723.00
2023-03-27T12:21:14.863Z,95727.00
2023-03-27T12:23:14.872Z,95727.00
2023-03-27T12:24:14.835Z,95725.00
2023-03-27T12:25:14.840Z,95725.00
2023-03-27T12:28:22.652Z,95729.00
2023-03-27T12:29:22.784Z,95729.00
2023-03-27T12:30:14.796Z,95731.00
2023-03-27T12:32:13.843Z,95739.00
2023-03-27T12:34:13.757Z,95739.00